sensor_id;sensor_type;location;lat;lon;timestamp;P1;durP1;ratioP1;P2;durP2;ratioP2
8716;SDS011;4395;48.554;8.820;2023-02-28T00:00:20;4.10;;;2.78;;
8716;SDS011;4395;48.554;8.820;2023-02-28T00:02:24;4.75;;;3.35;;
8716;SDS011;4395;48.554;8.820;2023-02-28T00:04:26;3.47;;;3.00;;
8716;SDS011;4395;48.554;8.820;2023-02-28T00:06:29;3.67;;;3.00;;
8716;SDS011;4395;48.554;8.820;2023-02-28T00:08:32;3.53;;;2.75;;
8716;SDS011;4395;48.554;8.820;2023-02-28T00:10:37;4.28;;;2.40;;
8716;SDS011;4395;48.554;8.820;2023-02-28T00:12:40;3.35;;;2.90;;
8716;SDS011;4395;48.554;8.820;2023-02-28T00:14:43;2.67;;;2.47;;
8716;SDS011;4395;48.554;8.820;2023-02-28T00:16:46;3.25;;;2.95;;
8716;SDS011;4395;48.554;8.820;2023-02-28T00:18:49;3.63;;;2.90;;
8716;SDS011;4395;48.554;8.820;2023-02-28T00:20:52;3.60;;;2.70;;
8716;SDS011;4395;48.554;8.820;2023-02-28T00:22:55;3.63;;;2.95;;
8716;SDS011;4395;48.554;8.820;2023-02-28T00:24:58;4.43;;;2.92;;
8716;SDS011;4395;48.554;8.820;2023-02-28T00:27:02;3.35;;;2.92;;
8716;SDS011;4395;48.554;8.820;2023-02-28T00:29:05;3.95;;;2.80;;
8716;SDS011;4395;48.554;8.820;2023-02-28T00:31:07;2.55;;;2.33;;
8716;SDS011;4395;48.554;8.820;2023-02-28T00:33:10;2.67;;;2.47;;
8716;SDS011;4395;48.554;8.820;2023-02-28T00:35:13;3.42;;;2.78;;
8716;SDS011;4395;48.554;8.820;2023-02-28T00:37:17;2.85;;;2.58;;
8716;SDS011;4395;48.554;8.820;2023-02-28T00:39:19;3.83;;;2.65;;
8716;SDS011;4395;48.554;8.820;2023-02-28T00:41:23;3.88;;;2.58;;
8716;SDS011;4395;48.554;8.820;2023-02-28T00:43:27;2.88;;;2.53;;
8716;SDS011;4395;48.554;8.820;2023-02-28T00:45:29;3.05;;;2.40;;
8716;SDS011;4395;48.554;8.820;2023-02-28T00:47:32;4.15;;;2.88;;
8716;SDS011;4395;48.554;8.820;2023-02-28T00:49:35;3.78;;;2.70;;
8716;SDS011;4395;48.554;8.820;2023-02-28T00:51:38;4.18;;;2.80;;
8716;SDS011;4395;48.554;8.820;2023-02-28T00:53:41;3.15;;;2.80;;
8716;SDS011;4395;48.554;8.820;2023-02-28T00:55:43;3.60;;;2.80;;
8716;SDS011;4395;48.554;8.820;2023-02-28T00:57:46;3.50;;;2.78;;
8716;SDS011;4395;48.554;8.820;2023-02-28T00:59:50;3.60;;;2.90;;
8716;SDS011;4395;48.554;8.820;2023-02-28T01:01:55;3.83;;;2.30;;
8716;SDS011;4395;48.554;8.820;2023-02-28T01:03:58;3.17;;;2.78;;
8716;SDS011;4395;48.554;8.820;2023-02-28T01:06:00;7.03;;;2.67;;
8716;SDS011;4395;48.554;8.820;2023-02-28T01:08:03;3.17;;;2.60;;
8716;SDS011;4395;48.554;8.820;2023-02-28T01:10:08;3.17;;;2.85;;
8716;SDS011;4395;48.554;8.820;2023-02-28T01:12:11;2.55;;;2.35;;
8716;SDS011;4395;48.554;8.820;2023-02-28T01:14:15;2.95;;;2.67;;
8716;SDS011;4395;48.554;8.820;2023-02-28T01:16:21;4.45;;;2.78;;
8716;SDS011;4395;48.554;8.820;2023-02-28T01:18:24;3.35;;;2.95;;
8716;SDS011;4395;48.554;8.820;2023-02-28T01:20:27;2.83;;;2.50;;
8716;SDS011;4395;48.554;8.820;2023-02-28T01:22:30;3.53;;;3.15;;
8716;SDS011;4395;48.554;8.820;2023-02-28T01:24:32;4.47;;;3.03;;
8716;SDS011;4395;48.554;8.820;2023-02-28T01:26:35;3.00;;;2.65;;
8716;SDS011;4395;48.554;8.820;2023-02-28T01:28:41;3.17;;;2.67;;
8716;SDS011;4395;48.554;8.820;2023-02-28T01:30:47;3.92;;;2.88;;
8716;SDS011;4395;48.554;8.820;2023-02-28T01:32:51;3.30;;;2.83;;
8716;SDS011;4395;48.554;8.820;2023-02-28T01:34:54;3.78;;;3.20;;
8716;SDS011;4395;48.554;8.820;2023-02-28T01:36:57;3.25;;;2.80;;
8716;SDS011;4395;48.554;8.820;2023-02-28T01:39:00;4.20;;;3.15;;
8716;SDS011;4395;48.554;8.820;2023-02-28T01:41:03;5.30;;;2.85;;
8716;SDS011;4395;48.554;8.820;2023-02-28T01:43:09;6.53;;;3.28;;
8716;SDS011;4395;48.554;8.820;2023-02-28T01:45:23;4.22;;;3.00;;
8716;SDS011;4395;48.554;8.820;2023-02-28T01:47:30;3.35;;;2.72;;
8716;SDS011;4395;48.554;8.820;2023-02-28T01:49:36;3.25;;;2.95;;
8716;SDS011;4395;48.554;8.820;2023-02-28T01:51:40;4.65;;;2.80;;
8716;SDS011;4395;48.554;8.820;2023-02-28T01:53:52;3.50;;;2.67;;
8716;SDS011;4395;48.554;8.820;2023-02-28T01:55:59;3.95;;;3.28;;
8716;SDS011;4395;48.554;8.820;2023-02-28T01:58:02;3.58;;;2.90;;
8716;SDS011;4395;48.554;8.820;2023-02-28T02:00:08;3.65;;;2.72;;
8716;SDS011;4395;48.554;8.820;2023-02-28T02:02:20;3.55;;;2.97;;
8716;SDS011;4395;48.554;8.820;2023-02-28T02:04:26;3.00;;;2.70;;
8716;SDS011;4395;48.554;8.820;2023-02-28T02:06:37;3.03;;;2.72;;
8716;SDS011;4395;48.554;8.820;2023-02-28T02:08:44;3.60;;;2.80;;
8716;SDS011;4395;48.554;8.820;2023-02-28T02:10:47;3.78;;;2.90;;
8716;SDS011;4395;48.554;8.820;2023-02-28T02:13:03;3.38;;;3.08;;
8716;SDS011;4395;48.554;8.820;2023-02-28T02:15:14;4.13;;;3.00;;
8716;SDS011;4395;48.554;8.820;2023-02-28T02:17:21;4.03;;;2.88;;
8716;SDS011;4395;48.554;8.820;2023-02-28T02:19:39;5.50;;;2.80;;
8716;SDS011;4395;48.554;8.820;2023-02-28T02:22:01;3.50;;;3.10;;
8716;SDS011;4395;48.554;8.820;2023-02-28T02:24:31;3.53;;;3.15;;
8716;SDS011;4395;48.554;8.820;2023-02-28T02:27:11;3.40;;;3.10;;
8716;SDS011;4395;48.554;8.820;2023-02-28T02:32:09;4.65;;;3.42;;
8716;SDS011;4395;48.554;8.820;2023-02-28T02:34:28;6.28;;;3.20;;
8716;SDS011;4395;48.554;8.820;2023-02-28T02:36:43;4.03;;;3.17;;
8716;SDS011;4395;48.554;8.820;2023-02-28T02:38:54;4.95;;;3.50;;
8716;SDS011;4395;48.554;8.820;2023-02-28T02:41:05;3.83;;;2.80;;
8716;SDS011;4395;48.554;8.820;2023-02-28T02:43:16;5.55;;;3.03;;
8716;SDS011;4395;48.554;8.820;2023-02-28T02:45:23;4.22;;;3.47;;
8716;SDS011;4395;48.554;8.820;2023-02-28T02:47:29;3.92;;;3.40;;
8716;SDS011;4395;48.554;8.820;2023-02-28T02:49:38;4.75;;;3.33;;
8716;SDS011;4395;48.554;8.820;2023-02-28T02:51:44;4.85;;;3.35;;
8716;SDS011;4395;48.554;8.820;2023-02-28T02:53:50;3.28;;;2.97;;
8716;SDS011;4395;48.554;8.820;2023-02-28T02:55:57;3.88;;;3.22;;
8716;SDS011;4395;48.554;8.820;2023-02-28T02:58:06;3.90;;;3.45;;
8716;SDS011;4395;48.554;8.820;2023-02-28T03:00:13;4.38;;;3.58;;
8716;SDS011;4395;48.554;8.820;2023-02-28T03:02:21;3.75;;;3.33;;
8716;SDS011;4395;48.554;8.820;2023-02-28T03:04:27;5.38;;;3.20;;
8716;SDS011;4395;48.554;8.820;2023-02-28T03:06:36;3.92;;;3.55;;
8716;SDS011;4395;48.554;8.820;2023-02-28T03:08:39;14.50;;;3.97;;
8716;SDS011;4395;48.554;8.820;2023-02-28T03:10:43;4.13;;;3.67;;
8716;SDS011;4395;48.554;8.820;2023-02-28T03:12:52;4.75;;;3.60;;
8716;SDS011;4395;48.554;8.820;2023-02-28T03:15:07;4.07;;;3.50;;
8716;SDS011;4395;48.554;8.820;2023-02-28T03:17:27;3.90;;;3.50;;
8716;SDS011;4395;48.554;8.820;2023-02-28T03:19:44;5.20;;;3.65;;
8716;SDS011;4395;48.554;8.820;2023-02-28T03:22:01;3.50;;;3.20;;
8716;SDS011;4395;48.554;8.820;2023-02-28T03:24:17;5.40;;;4.20;;
8716;SDS011;4395;48.554;8.820;2023-02-28T03:26:26;5.88;;;3.50;;
8716;SDS011;4395;48.554;8.820;2023-02-28T03:28:31;7.50;;;3.80;;
8716;SDS011;4395;48.554;8.820;2023-02-28T03:30:42;4.68;;;3.75;;
8716;SDS011;4395;48.554;8.820;2023-02-28T03:32:56;4.78;;;3.35;;
8716;SDS011;4395;48.554;8.820;2023-02-28T03:35:01;3.85;;;3.40;;
8716;SDS011;4395;48.554;8.820;2023-02-28T03:37:11;3.60;;;3.30;;
8716;SDS011;4395;48.554;8.820;2023-02-28T03:39:20;4.32;;;3.70;;
8716;SDS011;4395;48.554;8.820;2023-02-28T03:41:27;5.28;;;3.78;;
8716;SDS011;4395;48.554;8.820;2023-02-28T03:43:35;3.97;;;3.65;;
8716;SDS011;4395;48.554;8.820;2023-02-28T03:45:43;5.45;;;3.83;;
8716;SDS011;4395;48.554;8.820;2023-02-28T03:47:49;4.68;;;4.05;;
8716;SDS011;4395;48.554;8.820;2023-02-28T03:49:56;6.55;;;4.38;;
8716;SDS011;4395;48.554;8.820;2023-02-28T03:52:04;4.40;;;4.00;;
8716;SDS011;4395;48.554;8.820;2023-02-28T03:54:11;5.43;;;4.22;;
8716;SDS011;4395;48.554;8.820;2023-02-28T03:56:19;5.40;;;4.00;;
8716;SDS011;4395;48.554;8.820;2023-02-28T03:58:26;5.45;;;4.25;;
8716;SDS011;4395;48.554;8.820;2023-02-28T04:00:34;5.95;;;4.00;;
8716;SDS011;4395;48.554;8.820;2023-02-28T04:02:40;6.03;;;4.32;;
8716;SDS011;4395;48.554;8.820;2023-02-28T04:04:43;5.25;;;4.20;;
8716;SDS011;4395;48.554;8.820;2023-02-28T04:06:47;5.70;;;4.07;;
8716;SDS011;4395;48.554;8.820;2023-02-28T04:08:52;6.80;;;3.92;;
8716;SDS011;4395;48.554;8.820;2023-02-28T04:10:57;5.90;;;4.30;;
8716;SDS011;4395;48.554;8.820;2023-02-28T04:13:04;4.22;;;3.83;;
8716;SDS011;4395;48.554;8.820;2023-02-28T04:15:07;4.75;;;4.20;;
8716;SDS011;4395;48.554;8.820;2023-02-28T04:17:11;7.00;;;4.40;;
8716;SDS011;4395;48.554;8.820;2023-02-28T04:19:14;4.68;;;4.18;;
8716;SDS011;4395;48.554;8.820;2023-02-28T04:21:17;4.55;;;4.13;;
8716;SDS011;4395;48.554;8.820;2023-02-28T04:23:22;4.75;;;4.32;;
8716;SDS011;4395;48.554;8.820;2023-02-28T04:25:25;5.20;;;4.25;;
8716;SDS011;4395;48.554;8.820;2023-02-28T04:27:29;5.40;;;4.13;;
8716;SDS011;4395;48.554;8.820;2023-02-28T04:29:33;5.47;;;4.75;;
8716;SDS011;4395;48.554;8.820;2023-02-28T04:31:35;7.07;;;4.50;;
8716;SDS011;4395;48.554;8.820;2023-02-28T04:33:39;5.03;;;4.53;;
8716;SDS011;4395;48.554;8.820;2023-02-28T04:35:42;6.22;;;4.50;;
8716;SDS011;4395;48.554;8.820;2023-02-28T04:37:44;6.75;;;4.32;;
8716;SDS011;4395;48.554;8.820;2023-02-28T04:39:47;5.53;;;4.57;;
8716;SDS011;4395;48.554;8.820;2023-02-28T04:41:50;5.68;;;4.22;;
8716;SDS011;4395;48.554;8.820;2023-02-28T04:43:54;5.22;;;4.72;;
8716;SDS011;4395;48.554;8.820;2023-02-28T04:45:58;6.28;;;4.40;;
8716;SDS011;4395;48.554;8.820;2023-02-28T04:48:04;4.85;;;4.10;;
8716;SDS011;4395;48.554;8.820;2023-02-28T04:50:07;6.68;;;4.60;;
8716;SDS011;4395;48.554;8.820;2023-02-28T04:52:11;5.00;;;4.50;;
8716;SDS011;4395;48.554;8.820;2023-02-28T04:54:14;5.82;;;4.60;;
8716;SDS011;4395;48.554;8.820;2023-02-28T04:56:17;7.40;;;6.05;;
8716;SDS011;4395;48.554;8.820;2023-02-28T04:58:20;6.03;;;5.22;;
8716;SDS011;4395;48.554;8.820;2023-02-28T05:00:25;4.60;;;4.18;;
8716;SDS011;4395;48.554;8.820;2023-02-28T05:02:28;5.63;;;4.97;;
8716;SDS011;4395;48.554;8.820;2023-02-28T05:04:31;5.35;;;4.43;;
8716;SDS011;4395;48.554;8.820;2023-02-28T05:06:35;7.32;;;4.88;;
8716;SDS011;4395;48.554;8.820;2023-02-28T05:08:38;8.27;;;4.65;;
8716;SDS011;4395;48.554;8.820;2023-02-28T05:10:41;5.63;;;4.45;;
8716;SDS011;4395;48.554;8.820;2023-02-28T05:12:44;4.85;;;4.30;;
8716;SDS011;4395;48.554;8.820;2023-02-28T05:14:47;7.32;;;5.38;;
8716;SDS011;4395;48.554;8.820;2023-02-28T05:16:51;6.03;;;5.13;;
8716;SDS011;4395;48.554;8.820;2023-02-28T05:18:54;5.05;;;4.47;;
8716;SDS011;4395;48.554;8.820;2023-02-28T05:20:56;7.85;;;5.35;;
8716;SDS011;4395;48.554;8.820;2023-02-28T05:22:59;5.75;;;5.15;;
8716;SDS011;4395;48.554;8.820;2023-02-28T05:25:04;5.57;;;4.95;;
8716;SDS011;4395;48.554;8.820;2023-02-28T05:27:09;6.32;;;5.05;;
8716;SDS011;4395;48.554;8.820;2023-02-28T05:29:12;5.45;;;4.78;;
8716;SDS011;4395;48.554;8.820;2023-02-28T05:31:15;6.88;;;4.75;;
8716;SDS011;4395;48.554;8.820;2023-02-28T05:33:19;6.68;;;4.72;;
8716;SDS011;4395;48.554;8.820;2023-02-28T05:35:22;8.18;;;4.95;;
8716;SDS011;4395;48.554;8.820;2023-02-28T05:37:25;6.00;;;4.93;;
8716;SDS011;4395;48.554;8.820;2023-02-28T05:39:28;5.70;;;4.90;;
8716;SDS011;4395;48.554;8.820;2023-02-28T05:41:30;7.03;;;5.57;;
8716;SDS011;4395;48.554;8.820;2023-02-28T05:43:33;10.05;;;5.30;;
8716;SDS011;4395;48.554;8.820;2023-02-28T05:45:36;7.95;;;5.55;;
8716;SDS011;4395;48.554;8.820;2023-02-28T05:47:39;6.78;;;5.38;;
8716;SDS011;4395;48.554;8.820;2023-02-28T05:49:43;5.93;;;5.05;;
8716;SDS011;4395;48.554;8.820;2023-02-28T05:51:46;5.90;;;5.03;;
8716;SDS011;4395;48.554;8.820;2023-02-28T05:53:49;6.82;;;5.22;;
8716;SDS011;4395;48.554;8.820;2023-02-28T05:55:51;6.70;;;5.13;;
8716;SDS011;4395;48.554;8.820;2023-02-28T05:57:54;6.40;;;5.10;;
8716;SDS011;4395;48.554;8.820;2023-02-28T05:59:57;7.60;;;5.80;;
8716;SDS011;4395;48.554;8.820;2023-02-28T06:02:00;7.65;;;6.85;;
8716;SDS011;4395;48.554;8.820;2023-02-28T06:04:03;6.95;;;5.78;;
8716;SDS011;4395;48.554;8.820;2023-02-28T06:06:10;6.80;;;5.95;;
8716;SDS011;4395;48.554;8.820;2023-02-28T06:08:13;7.15;;;6.28;;
8716;SDS011;4395;48.554;8.820;2023-02-28T06:10:16;7.30;;;5.85;;
8716;SDS011;4395;48.554;8.820;2023-02-28T06:12:18;7.78;;;6.20;;
8716;SDS011;4395;48.554;8.820;2023-02-28T06:14:21;7.05;;;5.72;;
8716;SDS011;4395;48.554;8.820;2023-02-28T06:16:24;8.35;;;6.13;;
8716;SDS011;4395;48.554;8.820;2023-02-28T06:18:27;7.22;;;6.18;;
8716;SDS011;4395;48.554;8.820;2023-02-28T06:20:30;6.70;;;6.03;;
8716;SDS011;4395;48.554;8.820;2023-02-28T06:22:34;6.47;;;5.82;;
8716;SDS011;4395;48.554;8.820;2023-02-28T06:24:37;8.85;;;6.15;;
8716;SDS011;4395;48.554;8.820;2023-02-28T06:26:40;8.40;;;6.15;;
8716;SDS011;4395;48.554;8.820;2023-02-28T06:28:43;7.05;;;6.03;;
8716;SDS011;4395;48.554;8.820;2023-02-28T06:30:45;8.57;;;6.20;;
8716;SDS011;4395;48.554;8.820;2023-02-28T06:32:48;8.77;;;6.40;;
8716;SDS011;4395;48.554;8.820;2023-02-28T06:34:51;6.70;;;5.97;;
8716;SDS011;4395;48.554;8.820;2023-02-28T06:36:54;7.03;;;6.32;;
8716;SDS011;4395;48.554;8.820;2023-02-28T06:38:58;8.32;;;5.93;;
8716;SDS011;4395;48.554;8.820;2023-02-28T06:41:01;8.82;;;7.22;;
8716;SDS011;4395;48.554;8.820;2023-02-28T06:43:05;7.65;;;5.88;;
8716;SDS011;4395;48.554;8.820;2023-02-28T06:45:08;8.07;;;6.55;;
8716;SDS011;4395;48.554;8.820;2023-02-28T06:47:12;7.80;;;6.63;;
8716;SDS011;4395;48.554;8.820;2023-02-28T06:49:14;7.75;;;6.53;;
8716;SDS011;4395;48.554;8.820;2023-02-28T06:51:18;8.75;;;6.18;;
8716;SDS011;4395;48.554;8.820;2023-02-28T06:53:23;8.13;;;6.65;;
8716;SDS011;4395;48.554;8.820;2023-02-28T06:55:27;8.80;;;6.75;;
8716;SDS011;4395;48.554;8.820;2023-02-28T06:57:31;7.25;;;6.35;;
8716;SDS011;4395;48.554;8.820;2023-02-28T06:59:35;8.02;;;6.75;;
8716;SDS011;4395;48.554;8.820;2023-02-28T07:01:38;7.30;;;6.00;;
8716;SDS011;4395;48.554;8.820;2023-02-28T07:03:41;7.63;;;6.53;;
8716;SDS011;4395;48.554;8.820;2023-02-28T07:05:44;6.85;;;5.78;;
8716;SDS011;4395;48.554;8.820;2023-02-28T07:07:47;7.93;;;6.88;;
8716;SDS011;4395;48.554;8.820;2023-02-28T07:09:50;9.77;;;6.88;;
8716;SDS011;4395;48.554;8.820;2023-02-28T07:11:54;8.38;;;7.18;;
8716;SDS011;4395;48.554;8.820;2023-02-28T07:13:57;8.80;;;6.45;;
8716;SDS011;4395;48.554;8.820;2023-02-28T07:16:00;9.30;;;6.25;;
8716;SDS011;4395;48.554;8.820;2023-02-28T07:18:04;8.43;;;6.35;;
8716;SDS011;4395;48.554;8.820;2023-02-28T07:20:07;7.63;;;6.05;;
8716;SDS011;4395;48.554;8.820;2023-02-28T07:22:11;7.65;;;6.35;;
8716;SDS011;4395;48.554;8.820;2023-02-28T07:24:16;7.78;;;6.40;;
8716;SDS011;4395;48.554;8.820;2023-02-28T07:26:19;7.70;;;6.22;;
8716;SDS011;4395;48.554;8.820;2023-02-28T07:28:24;9.02;;;6.53;;
8716;SDS011;4395;48.554;8.820;2023-02-28T07:30:27;7.70;;;6.20;;
8716;SDS011;4395;48.554;8.820;2023-02-28T07:32:30;8.80;;;7.15;;
8716;SDS011;4395;48.554;8.820;2023-02-28T07:34:32;8.02;;;6.72;;
8716;SDS011;4395;48.554;8.820;2023-02-28T07:36:35;9.80;;;6.40;;
8716;SDS011;4395;48.554;8.820;2023-02-28T07:38:38;8.20;;;6.82;;
8716;SDS011;4395;48.554;8.820;2023-02-28T07:40:40;6.75;;;5.95;;
8716;SDS011;4395;48.554;8.820;2023-02-28T07:42:43;8.73;;;6.97;;
8716;SDS011;4395;48.554;8.820;2023-02-28T07:44:52;8.77;;;6.45;;
8716;SDS011;4395;48.554;8.820;2023-02-28T07:46:54;10.20;;;6.78;;
8716;SDS011;4395;48.554;8.820;2023-02-28T07:48:57;8.98;;;6.80;;
8716;SDS011;4395;48.554;8.820;2023-02-28T07:51:01;8.75;;;7.28;;
8716;SDS011;4395;48.554;8.820;2023-02-28T07:53:04;8.35;;;6.78;;
8716;SDS011;4395;48.554;8.820;2023-02-28T07:55:07;9.27;;;6.75;;
8716;SDS011;4395;48.554;8.820;2023-02-28T07:57:11;8.93;;;7.07;;
8716;SDS011;4395;48.554;8.820;2023-02-28T07:59:14;8.95;;;6.40;;
8716;SDS011;4395;48.554;8.820;2023-02-28T08:01:18;7.75;;;6.55;;
8716;SDS011;4395;48.554;8.820;2023-02-28T08:03:22;9.30;;;7.57;;
8716;SDS011;4395;48.554;8.820;2023-02-28T08:05:25;11.52;;;7.05;;
8716;SDS011;4395;48.554;8.820;2023-02-28T08:07:28;8.10;;;6.63;;
8716;SDS011;4395;48.554;8.820;2023-02-28T08:09:30;7.93;;;6.93;;
8716;SDS011;4395;48.554;8.820;2023-02-28T08:11:33;8.32;;;7.07;;
8716;SDS011;4395;48.554;8.820;2023-02-28T08:13:37;10.85;;;7.97;;
8716;SDS011;4395;48.554;8.820;2023-02-28T08:15:40;7.95;;;6.65;;
8716;SDS011;4395;48.554;8.820;2023-02-28T08:17:44;8.82;;;7.25;;
8716;SDS011;4395;48.554;8.820;2023-02-28T08:19:47;9.63;;;7.45;;
8716;SDS011;4395;48.554;8.820;2023-02-28T08:21:51;9.90;;;7.00;;
8716;SDS011;4395;48.554;8.820;2023-02-28T08:23:54;10.07;;;7.05;;
8716;SDS011;4395;48.554;8.820;2023-02-28T08:25:58;11.00;;;7.30;;
8716;SDS011;4395;48.554;8.820;2023-02-28T08:28:00;10.40;;;9.23;;
8716;SDS011;4395;48.554;8.820;2023-02-28T08:30:03;8.48;;;7.20;;
8716;SDS011;4395;48.554;8.820;2023-02-28T08:32:07;10.13;;;7.15;;
8716;SDS011;4395;48.554;8.820;2023-02-28T08:34:30;9.05;;;7.78;;
8716;SDS011;4395;48.554;8.820;2023-02-28T08:36:33;11.00;;;8.60;;
8716;SDS011;4395;48.554;8.820;2023-02-28T08:38:36;8.93;;;7.43;;
8716;SDS011;4395;48.554;8.820;2023-02-28T08:40:39;9.85;;;8.45;;
8716;SDS011;4395;48.554;8.820;2023-02-28T08:42:42;10.30;;;8.18;;
8716;SDS011;4395;48.554;8.820;2023-02-28T08:44:45;9.32;;;7.78;;
8716;SDS011;4395;48.554;8.820;2023-02-28T08:46:48;11.48;;;8.15;;
8716;SDS011;4395;48.554;8.820;2023-02-28T08:48:51;10.43;;;8.77;;
8716;SDS011;4395;48.554;8.820;2023-02-28T08:50:56;8.20;;;6.90;;
8716;SDS011;4395;48.554;8.820;2023-02-28T08:53:08;10.55;;;8.20;;
8716;SDS011;4395;48.554;8.820;2023-02-28T08:55:10;11.02;;;8.95;;
8716;SDS011;4395;48.554;8.820;2023-02-28T08:57:13;9.27;;;7.60;;
8716;SDS011;4395;48.554;8.820;2023-02-28T08:59:16;9.73;;;7.75;;
8716;SDS011;4395;48.554;8.820;2023-02-28T09:01:19;8.98;;;7.65;;
8716;SDS011;4395;48.554;8.820;2023-02-28T09:03:24;10.85;;;8.32;;
8716;SDS011;4395;48.554;8.820;2023-02-28T09:05:28;11.65;;;8.52;;
8716;SDS011;4395;48.554;8.820;2023-02-28T09:07:32;10.55;;;8.52;;
8716;SDS011;4395;48.554;8.820;2023-02-28T09:09:35;10.45;;;8.07;;
8716;SDS011;4395;48.554;8.820;2023-02-28T09:11:38;15.10;;;10.55;;
8716;SDS011;4395;48.554;8.820;2023-02-28T09:13:40;11.98;;;8.82;;
8716;SDS011;4395;48.554;8.820;2023-02-28T09:15:43;16.05;;;8.65;;
8716;SDS011;4395;48.554;8.820;2023-02-28T09:17:46;17.88;;;12.00;;
8716;SDS011;4395;48.554;8.820;2023-02-28T09:19:49;10.65;;;9.35;;
8716;SDS011;4395;48.554;8.820;2023-02-28T09:21:52;10.40;;;8.32;;
8716;SDS011;4395;48.554;8.820;2023-02-28T09:23:56;10.43;;;8.55;;
8716;SDS011;4395;48.554;8.820;2023-02-28T09:25:59;12.50;;;9.88;;
8716;SDS011;4395;48.554;8.820;2023-02-28T09:28:02;11.00;;;8.45;;
8716;SDS011;4395;48.554;8.820;2023-02-28T09:30:06;10.75;;;9.32;;
8716;SDS011;4395;48.554;8.820;2023-02-28T09:32:10;10.23;;;8.38;;
8716;SDS011;4395;48.554;8.820;2023-02-28T09:34:12;9.77;;;8.13;;
8716;SDS011;4395;48.554;8.820;2023-02-28T09:36:15;13.23;;;8.82;;
8716;SDS011;4395;48.554;8.820;2023-02-28T09:38:18;9.80;;;8.00;;
8716;SDS011;4395;48.554;8.820;2023-02-28T09:40:23;10.27;;;8.50;;
8716;SDS011;4395;48.554;8.820;2023-02-28T09:42:28;11.35;;;8.70;;
8716;SDS011;4395;48.554;8.820;2023-02-28T09:44:36;11.25;;;8.98;;
8716;SDS011;4395;48.554;8.820;2023-02-28T09:46:42;11.30;;;8.55;;
8716;SDS011;4395;48.554;8.820;2023-02-28T09:48:48;10.95;;;9.13;;
8716;SDS011;4395;48.554;8.820;2023-02-28T09:50:55;9.38;;;8.00;;
8716;SDS011;4395;48.554;8.820;2023-02-28T09:53:03;14.13;;;8.13;;
8716;SDS011;4395;48.554;8.820;2023-02-28T09:55:18;11.27;;;8.63;;
8716;SDS011;4395;48.554;8.820;2023-02-28T09:57:26;10.43;;;8.68;;
8716;SDS011;4395;48.554;8.820;2023-02-28T09:59:39;14.65;;;10.65;;
8716;SDS011;4395;48.554;8.820;2023-02-28T10:02:03;13.55;;;8.52;;
8716;SDS011;4395;48.554;8.820;2023-02-28T10:04:15;12.43;;;8.55;;
8716;SDS011;4395;48.554;8.820;2023-02-28T10:06:33;11.23;;;8.60;;
8716;SDS011;4395;48.554;8.820;2023-02-28T10:08:40;11.73;;;9.20;;
8716;SDS011;4395;48.554;8.820;2023-02-28T10:10:49;10.52;;;8.27;;
8716;SDS011;4395;48.554;8.820;2023-02-28T10:12:56;9.80;;;8.25;;
8716;SDS011;4395;48.554;8.820;2023-02-28T10:15:01;10.18;;;7.85;;
8716;SDS011;4395;48.554;8.820;2023-02-28T10:17:08;12.98;;;8.98;;
8716;SDS011;4395;48.554;8.820;2023-02-28T10:19:15;13.88;;;8.65;;
8716;SDS011;4395;48.554;8.820;2023-02-28T10:21:24;10.48;;;8.43;;
8716;SDS011;4395;48.554;8.820;2023-02-28T10:23:31;11.15;;;7.63;;
8716;SDS011;4395;48.554;8.820;2023-02-28T10:25:38;11.93;;;8.40;;
8716;SDS011;4395;48.554;8.820;2023-02-28T10:27:41;10.90;;;8.40;;
8716;SDS011;4395;48.554;8.820;2023-02-28T10:29:47;10.32;;;8.30;;
8716;SDS011;4395;48.554;8.820;2023-02-28T10:31:51;10.65;;;8.18;;
8716;SDS011;4395;48.554;8.820;2023-02-28T10:33:54;12.23;;;9.05;;
8716;SDS011;4395;48.554;8.820;2023-02-28T10:35:57;9.98;;;8.65;;
8716;SDS011;4395;48.554;8.820;2023-02-28T10:38:00;9.30;;;7.85;;
8716;SDS011;4395;48.554;8.820;2023-02-28T10:40:27;13.30;;;8.05;;
8716;SDS011;4395;48.554;8.820;2023-02-28T10:42:34;9.70;;;8.18;;
8716;SDS011;4395;48.554;8.820;2023-02-28T10:44:40;11.40;;;8.38;;
8716;SDS011;4395;48.554;8.820;2023-02-28T10:46:44;10.20;;;7.60;;
8716;SDS011;4395;48.554;8.820;2023-02-28T10:48:49;10.13;;;7.80;;
8716;SDS011;4395;48.554;8.820;2023-02-28T10:51:03;10.32;;;8.30;;
8716;SDS011;4395;48.554;8.820;2023-02-28T10:53:22;10.00;;;7.97;;
8716;SDS011;4395;48.554;8.820;2023-02-28T10:55:42;15.35;;;8.05;;
8716;SDS011;4395;48.554;8.820;2023-02-28T10:57:46;9.75;;;7.72;;
8716;SDS011;4395;48.554;8.820;2023-02-28T10:59:50;10.27;;;8.23;;
8716;SDS011;4395;48.554;8.820;2023-02-28T11:01:55;9.13;;;7.88;;
8716;SDS011;4395;48.554;8.820;2023-02-28T11:03:58;9.80;;;8.07;;
8716;SDS011;4395;48.554;8.820;2023-02-28T11:06:05;9.13;;;8.20;;
8716;SDS011;4395;48.554;8.820;2023-02-28T11:08:10;9.77;;;7.70;;
8716;SDS011;4395;48.554;8.820;2023-02-28T11:10:17;10.25;;;8.48;;
8716;SDS011;4395;48.554;8.820;2023-02-28T11:12:23;9.40;;;7.95;;
8716;SDS011;4395;48.554;8.820;2023-02-28T11:14:29;9.38;;;7.80;;
8716;SDS011;4395;48.554;8.820;2023-02-28T11:16:35;8.13;;;7.22;;
8716;SDS011;4395;48.554;8.820;2023-02-28T11:18:42;8.90;;;7.32;;
8716;SDS011;4395;48.554;8.820;2023-02-28T11:20:50;8.63;;;7.70;;
8716;SDS011;4395;48.554;8.820;2023-02-28T11:22:55;8.13;;;7.30;;
8716;SDS011;4395;48.554;8.820;2023-02-28T11:25:00;13.05;;;8.90;;
8716;SDS011;4395;48.554;8.820;2023-02-28T11:27:04;11.73;;;8.23;;
8716;SDS011;4395;48.554;8.820;2023-02-28T11:29:10;9.40;;;8.40;;
8716;SDS011;4395;48.554;8.820;2023-02-28T11:31:17;10.55;;;7.95;;
8716;SDS011;4395;48.554;8.820;2023-02-28T11:33:25;9.32;;;8.13;;
8716;SDS011;4395;48.554;8.820;2023-02-28T11:35:33;9.88;;;7.95;;
8716;SDS011;4395;48.554;8.820;2023-02-28T11:37:40;12.55;;;8.65;;
8716;SDS011;4395;48.554;8.820;2023-02-28T11:39:43;21.80;;;9.48;;
8716;SDS011;4395;48.554;8.820;2023-02-28T11:41:52;10.85;;;8.43;;
8716;SDS011;4395;48.554;8.820;2023-02-28T11:44:10;9.65;;;7.93;;
8716;SDS011;4395;48.554;8.820;2023-02-28T11:46:26;8.82;;;7.68;;
8716;SDS011;4395;48.554;8.820;2023-02-28T11:48:38;9.57;;;7.80;;
8716;SDS011;4395;48.554;8.820;2023-02-28T11:50:54;10.75;;;8.20;;
8716;SDS011;4395;48.554;8.820;2023-02-28T11:53:05;9.88;;;7.60;;
8716;SDS011;4395;48.554;8.820;2023-02-28T11:55:17;8.82;;;7.47;;
8716;SDS011;4395;48.554;8.820;2023-02-28T11:57:28;10.02;;;8.98;;
8716;SDS011;4395;48.554;8.820;2023-02-28T11:59:42;12.27;;;9.55;;
8716;SDS011;4395;48.554;8.820;2023-02-28T12:02:01;16.75;;;9.43;;
8716;SDS011;4395;48.554;8.820;2023-02-28T12:04:22;11.38;;;8.80;;
8716;SDS011;4395;48.554;8.820;2023-02-28T12:06:32;11.30;;;7.82;;
8716;SDS011;4395;48.554;8.820;2023-02-28T12:08:45;13.30;;;10.50;;
8716;SDS011;4395;48.554;8.820;2023-02-28T12:10:56;10.15;;;8.90;;
8716;SDS011;4395;48.554;8.820;2023-02-28T12:13:10;12.10;;;8.20;;
8716;SDS011;4395;48.554;8.820;2023-02-28T12:15:26;11.70;;;8.70;;
8716;SDS011;4395;48.554;8.820;2023-02-28T12:17:41;9.55;;;7.30;;
8716;SDS011;4395;48.554;8.820;2023-02-28T12:19:54;11.95;;;9.15;;
8716;SDS011;4395;48.554;8.820;2023-02-28T12:22:21;14.68;;;10.35;;
8716;SDS011;4395;48.554;8.820;2023-02-28T12:24:47;9.70;;;7.93;;
8716;SDS011;4395;48.554;8.820;2023-02-28T12:27:07;8.95;;;8.05;;
8716;SDS011;4395;48.554;8.820;2023-02-28T12:29:16;13.45;;;9.90;;
8716;SDS011;4395;48.554;8.820;2023-02-28T12:31:24;54.95;;;25.77;;
8716;SDS011;4395;48.554;8.820;2023-02-28T12:33:32;16.65;;;9.70;;
8716;SDS011;4395;48.554;8.820;2023-02-28T12:35:38;36.03;;;20.00;;
8716;SDS011;4395;48.554;8.820;2023-02-28T12:37:51;12.98;;;8.13;;
8716;SDS011;4395;48.554;8.820;2023-02-28T12:40:00;9.45;;;8.05;;
8716;SDS011;4395;48.554;8.820;2023-02-28T12:42:08;9.25;;;7.93;;
8716;SDS011;4395;48.554;8.820;2023-02-28T12:44:16;9.88;;;7.88;;
8716;SDS011;4395;48.554;8.820;2023-02-28T12:46:23;8.73;;;7.82;;
8716;SDS011;4395;48.554;8.820;2023-02-28T12:48:31;8.55;;;7.05;;
8716;SDS011;4395;48.554;8.820;2023-02-28T12:50:39;11.30;;;8.93;;
8716;SDS011;4395;48.554;8.820;2023-02-28T12:52:46;10.05;;;7.95;;
8716;SDS011;4395;48.554;8.820;2023-02-28T12:54:59;10.70;;;8.25;;
8716;SDS011;4395;48.554;8.820;2023-02-28T12:57:06;10.57;;;7.78;;
8716;SDS011;4395;48.554;8.820;2023-02-28T12:59:18;13.48;;;8.50;;
8716;SDS011;4395;48.554;8.820;2023-02-28T13:01:36;13.15;;;9.27;;
8716;SDS011;4395;48.554;8.820;2023-02-28T13:03:52;8.52;;;7.45;;